createdAt,value
2022-11-06T00:00:09.683Z,101065.75
2022-11-06T00:02:37.523Z,101062.84
2022-11-06T00:05:20.009Z,101058.34
2022-11-06T00:07:49.232Z,101052.78
2022-11-06T00:10:18.236Z,101053.06
2022-11-06T00:12:46.410Z,101044.84
2022-11-06T00:15:14.216Z,101040.16
2022-11-06T00:17:42.351Z,101036.19
2022-11-06T00:20:10.929Z,101032.41
2022-11-06T00:22:39.248Z,101028.22
2022-11-06T00:25:09.276Z,101027.53
2022-11-06T00:27:37.233Z,101027.41
2022-11-06T00:30:06.539Z,101031.22
2022-11-06T00:32:34.272Z,101028.22
2022-11-06T00:35:03.596Z,101028.22
2022-11-06T00:37:31.361Z,101030.84
2022-11-06T00:39:59.817Z,101031.06
2022-11-06T00:42:28.883Z,101024.34
2022-11-06T00:44:56.623Z,101027.13
2022-11-06T00:47:24.646Z,101028.16
2022-11-06T00:49:52.381Z,101026.56
2022-11-06T00:52:20.151Z,101019.66
2022-11-06T00:54:47.880Z,101026.00
2022-11-06T00:57:15.598Z,101021.06
2022-11-06T00:59:44.664Z,101023.03
2022-11-06T01:02:12.509Z,101019.50
2022-11-06T01:04:40.372Z,101021.31
2022-11-06T01:07:08.087Z,101021.44
2022-11-06T01:09:35.879Z,101017.25
2022-11-06T01:12:18.935Z,101017.34
2022-11-06T01:14:48.041Z,101014.22
2022-11-06T01:17:15.764Z,101009.75
2022-11-06T01:19:43.517Z,101013.16
2022-11-06T01:22:11.280Z,101014.53
2022-11-06T01:24:39.104Z,101006.72
2022-11-06T01:29:57.789Z,101008.03
2022-11-06T01:32:25.529Z,101002.69
2022-11-06T01:34:53.328Z,100993.44
2022-11-06T01:37:21.056Z,100996.13
2022-11-06T01:39:50.009Z,100982.25
2022-11-06T01:42:20.790Z,100988.22
2022-11-06T01:45:24.644Z,100986.50
2022-11-06T01:47:52.616Z,100987.16
2022-11-06T01:50:20.535Z,100984.78
2022-11-06T01:52:50.180Z,100986.50
2022-11-06T01:55:22.257Z,100981.88
2022-11-06T01:57:50.075Z,100975.84
2022-11-06T02:00:43.636Z,100981.09
2022-11-06T02:03:37.158Z,100978.97
2022-11-06T02:06:05.792Z,100967.25
2022-11-06T02:08:33.550Z,100966.44
2022-11-06T02:11:01.340Z,100973.88
2022-11-06T02:13:38.300Z,100960.47
2022-11-06T02:16:13.712Z,100958.53
2022-11-06T02:18:51.404Z,100963.75
2022-11-06T02:21:32.352Z,100948.19
2022-11-06T02:24:15.025Z,100959.06
2022-11-06T02:26:54.996Z,100949.69
2022-11-06T02:29:28.541Z,100943.44
2022-11-06T02:31:57.267Z,100936.81
2022-11-06T02:34:26.515Z,100940.06
2022-11-06T02:36:58.004Z,100935.75
2022-11-06T02:39:27.392Z,100939.38
2022-11-06T02:41:58.817Z,100929.91
2022-11-06T02:44:29.182Z,100937.19
2022-11-06T02:47:01.075Z,100918.53
2022-11-06T02:49:32.708Z,100929.16
2022-11-06T02:52:06.140Z,100923.97
2022-11-06T02:54:36.753Z,100909.66
2022-11-06T02:59:53.399Z,100915.91
2022-11-06T03:02:24.486Z,100911.38
2022-11-06T03:04:54.664Z,100919.09
2022-11-06T03:07:28.678Z,100923.66
2022-11-06T03:09:56.580Z,100914.91
2022-11-06T03:12:29.161Z,100909.66
2022-11-06T03:15:00.388Z,100915.72
2022-11-06T03:17:35.473Z,100901.72
2022-11-06T03:20:07.721Z,100903.91
2022-11-06T03:22:40.169Z,100891.91
2022-11-06T03:25:16.571Z,100888.38
2022-11-06T03:27:51.023Z,100892.72
2022-11-06T03:30:18.983Z,100881.53
2022-11-06T03:32:50.159Z,100885.47
2022-11-06T03:35:23.480Z,100879.44
2022-11-06T03:37:55.874Z,100876.50
2022-11-06T03:40:25.279Z,100877.09
2022-11-06T03:42:56.765Z,100879.41
2022-11-06T03:45:25.700Z,100866.09
2022-11-06T03:47:56.272Z,100871.94
2022-11-06T03:50:27.831Z,100876.03
2022-11-06T03:52:58.594Z,100874.84
2022-11-06T03:55:29.609Z,100875.69
2022-11-06T03:58:03.164Z,100872.91
2022-11-06T04:00:31.629Z,100878.75
2022-11-06T04:03:05.617Z,100881.66
2022-11-06T04:05:37.814Z,100890.44
2022-11-06T04:08:32.915Z,100883.97
2022-11-06T04:11:20.440Z,100863.44
2022-11-06T04:14:03.945Z,100875.34
2022-11-06T04:16:35.021Z,100872.56
2022-11-06T04:19:03.563Z,100872.41
2022-11-06T04:21:44.749Z,100871.38
2022-11-06T04:24:52.420Z,100873.94
2022-11-06T04:27:30.578Z,100869.41
2022-11-06T04:30:08.634Z,100877.69
2022-11-06T04:32:46.400Z,100877.66
2022-11-06T04:35:18.835Z,100879.53
2022-11-06T04:37:52.072Z,100882.69
2022-11-06T04:40:24.858Z,100889.69
2022-11-06T04:42:56.539Z,100883.41
2022-11-06T04:45:28.189Z,100881.63
2022-11-06T04:47:56.425Z,100878.13
2022-11-06T04:50:24.612Z,100869.03
2022-11-06T04:52:53.016Z,100871.81
2022-11-06T04:55:21.672Z,100870.22
2022-11-06T04:57:49.460Z,100875.81
2022-11-06T05:00:18.351Z,100879.91
2022-11-06T05:02:47.450Z,100879.31
2022-11-06T05:05:15.186Z,100870.78
2022-11-06T05:07:42.922Z,100865.91
2022-11-06T05:10:10.775Z,100869.50
2022-11-06T05:12:38.502Z,100869.38
2022-11-06T05:15:07.367Z,100865.31
2022-11-06T05:17:36.620Z,100861.25
2022-11-06T05:20:07.329Z,100864.38
2022-11-06T05:22:52.471Z,100872.91
2022-11-06T05:25:20.314Z,100872.19
2022-11-06T05:27:48.026Z,100867.03
2022-11-06T05:30:15.870Z,100867.63
2022-11-06T05:32:43.583Z,100859.59
2022-11-06T05:35:12.800Z,100861.91
2022-11-06T05:37:40.514Z,100852.22
2022-11-06T05:40:08.744Z,100850.22
2022-11-06T05:42:40.574Z,100848.16
2022-11-06T05:45:09.341Z,100848.94
2022-11-06T05:47:37.356Z,100844.03
2022-11-06T05:50:05.540Z,100847.56
2022-11-06T05:52:35.441Z,100836.59
2022-11-06T05:55:03.167Z,100842.44
2022-11-06T05:57:31.187Z,100850.94
2022-11-06T05:59:58.938Z,100844.03
2022-11-06T06:02:26.883Z,100847.13
2022-11-06T06:04:54.716Z,100849.94
2022-11-06T06:07:22.432Z,100846.28
2022-11-06T06:09:51.536Z,100844.66
2022-11-06T06:12:19.300Z,100851.22
2022-11-06T06:14:50.437Z,100850.97
2022-11-06T06:17:18.450Z,100855.53
2022-11-06T06:19:46.221Z,100838.69
2022-11-06T06:22:13.963Z,100838.25
2022-11-06T06:24:42.276Z,100832.88
2022-11-06T06:27:11.412Z,100843.72
2022-11-06T06:29:39.117Z,100858.19
2022-11-06T06:32:07.246Z,100861.59
2022-11-06T06:34:34.980Z,100860.22
2022-11-06T06:37:04.740Z,100868.25
2022-11-06T06:39:34.321Z,100857.97
2022-11-06T06:42:02.028Z,100858.81
2022-11-06T06:44:31.185Z,100855.78
2022-11-06T06:46:58.889Z,100857.97
2022-11-06T06:49:26.599Z,100851.47
2022-11-06T06:51:55.159Z,100857.41
2022-11-06T06:54:22.876Z,100857.88
2022-11-06T06:56:50.593Z,100865.13
2022-11-06T06:59:18.388Z,100863.56
2022-11-06T07:01:48.112Z,100856.09
2022-11-06T07:04:15.883Z,100857.06
2022-11-06T07:06:43.613Z,100864.28
2022-11-06T07:09:11.424Z,100860.88
2022-11-06T07:11:39.208Z,100859.75
2022-11-06T07:14:06.951Z,100858.34
2022-11-06T07:16:34.667Z,100860.19
2022-11-06T07:19:03.771Z,100855.41
2022-11-06T07:21:31.503Z,100857.41
2022-11-06T07:23:59.235Z,100867.53
2022-11-06T07:26:26.925Z,100857.41
2022-11-06T07:28:54.648Z,100867.81
2022-11-06T07:31:22.352Z,100857.06
2022-11-06T07:33:50.066Z,100856.47
2022-11-06T07:36:19.545Z,100864.75
2022-11-06T07:38:47.365Z,100857.66
2022-11-06T07:41:15.842Z,100859.75
2022-11-06T07:43:44.295Z,100869.91
2022-11-06T07:46:13.603Z,100864.28
2022-11-06T07:48:41.332Z,100864.19
2022-11-06T07:51:11.551Z,100858.31
2022-11-06T07:53:41.177Z,100858.09
2022-11-06T07:56:09.595Z,100865.81
2022-11-06T07:58:37.348Z,100865.56
2022-11-06T08:01:05.513Z,100857.88
2022-11-06T08:03:34.249Z,100845.97
2022-11-06T08:06:04.857Z,100857.53
2022-11-06T08:08:32.692Z,100856.81
2022-11-06T08:11:04.574Z,100853.78
2022-11-06T08:13:33.803Z,100857.66
2022-11-06T08:16:04.767Z,100861.25
2022-11-06T08:18:32.571Z,100861.28
2022-11-06T08:21:00.334Z,100855.06
2022-11-06T08:23:28.436Z,100843.63
2022-11-06T08:25:56.654Z,100844.91
2022-11-06T08:28:26.340Z,100846.19
2022-11-06T08:30:54.624Z,100838.03
2022-11-06T08:33:23.092Z,100836.06
2022-11-06T08:35:51.026Z,100831.25
2022-11-06T08:38:19.054Z,100821.22
2022-11-06T08:40:52.291Z,100830.69
2022-11-06T08:43:23.419Z,100825.16
2022-11-06T08:45:52.633Z,100813.75
2022-11-06T08:48:20.457Z,100812.13
2022-11-06T08:50:48.188Z,100812.47
2022-11-06T08:53:16.220Z,100819.22
2022-11-06T08:55:44.365Z,100812.44
2022-11-06T08:58:12.094Z,100809.97
2022-11-06T09:00:39.932Z,100799.97
2022-11-06T09:03:11.840Z,100801.56
2022-11-06T09:05:40.819Z,100804.41
2022-11-06T09:08:09.197Z,100809.50
2022-11-06T09:10:38.524Z,100813.81
2022-11-06T09:13:06.363Z,100815.91
2022-11-06T09:15:34.204Z,100810.06
2022-11-06T09:18:03.531Z,100804.28
2022-11-06T09:20:32.595Z,100801.78
2022-11-06T09:23:03.140Z,100803.56
2022-11-06T09:25:31.252Z,100802.69
2022-11-06T09:27:59.827Z,100809.22
2022-11-06T09:30:29.193Z,100803.78
2022-11-06T09:35:55.845Z,100799.81
2022-11-06T09:38:26.978Z,100799.53
2022-11-06T09:40:58.118Z,100810.56
2022-11-06T09:44:03.099Z,100798.41
2022-11-06T09:46:24.179Z,100801.53
2022-11-06T09:48:56.738Z,100808.63
2022-11-06T09:51:32.601Z,100805.69
2022-11-06T09:54:06.243Z,100801.09
2022-11-06T09:56:35.724Z,100801.75
2022-11-06T09:59:11.792Z,100794.84
2022-11-06T10:01:43.425Z,100795.84
2022-11-06T10:04:21.553Z,100801.31
2022-11-06T10:06:50.811Z,100796.13
2022-11-06T10:09:18.590Z,100792.31
2022-11-06T10:11:53.294Z,100792.25
2022-11-06T10:14:32.650Z,100788.09
2022-11-06T10:17:04.488Z,100786.47
2022-11-06T10:19:41.325Z,100788.25
2022-11-06T10:22:15.363Z,100789.47
2022-11-06T10:24:47.288Z,100785.41
2022-11-06T10:27:17.817Z,100788.19
2022-11-06T10:30:03.919Z,100786.78
2022-11-06T10:32:50.229Z,100774.06
2022-11-06T10:35:21.321Z,100767.28
2022-11-06T10:37:54.599Z,100775.97
2022-11-06T10:40:25.581Z,100763.97
2022-11-06T10:43:00.362Z,100764.94
2022-11-06T10:45:30.573Z,100764.63
2022-11-06T10:48:06.277Z,100762.31
2022-11-06T10:50:43.209Z,100753.03
2022-11-06T10:53:20.305Z,100758.25
2022-11-06T10:56:08.242Z,100759.03
2022-11-06T10:58:37.519Z,100748.13
2022-11-06T11:01:07.020Z,100749.38
2022-11-06T11:03:36.896Z,100749.00
2022-11-06T11:06:06.293Z,100747.13
2022-11-06T11:08:41.952Z,100743.00
2022-11-06T11:11:24.425Z,100738.16
2022-11-06T11:14:16.411Z,100730.72
2022-11-06T11:16:45.988Z,100722.47
2022-11-06T11:19:24.464Z,100713.41
2022-11-06T11:21:57.331Z,100706.88
2022-11-06T11:24:26.968Z,100700.06
2022-11-06T11:26:56.292Z,100703.94
2022-11-06T11:29:25.557Z,100698.09
2022-11-06T11:31:55.305Z,100694.13
2022-11-06T11:34:25.138Z,100699.53
2022-11-06T11:36:58.689Z,100683.41
2022-11-06T11:39:30.820Z,100686.00
2022-11-06T11:42:18.687Z,100689.56
2022-11-06T11:44:46.511Z,100688.31
2022-11-06T11:47:22.336Z,100701.53
2022-11-06T11:49:50.267Z,100703.75
2022-11-06T11:52:21.204Z,100698.84
2022-11-06T11:54:53.218Z,100702.38
2022-11-06T11:57:22.959Z,100694.56
2022-11-06T11:59:52.834Z,100702.84
2022-11-06T12:02:26.785Z,100689.03
2022-11-06T12:04:58.238Z,100682.03
2022-11-06T12:07:27.900Z,100680.81
2022-11-06T12:09:57.191Z,100683.06
2022-11-06T12:12:26.186Z,100673.31
2022-11-06T12:15:07.474Z,100686.53
2022-11-06T12:17:37.704Z,100678.75
2022-11-06T12:20:12.577Z,100667.16
2022-11-06T12:22:43.439Z,100674.97
2022-11-06T12:25:16.954Z,100677.47
2022-11-06T12:27:48.096Z,100673.94
2022-11-06T12:30:17.804Z,100662.91
2022-11-06T12:32:53.993Z,100656.53
2022-11-06T12:35:25.749Z,100650.56
2022-11-06T12:37:59.554Z,100654.78
2022-11-06T12:40:32.270Z,100652.44
2022-11-06T12:43:05.350Z,100648.28
2022-11-06T12:45:44.172Z,100640.81
2022-11-06T12:48:20.388Z,100645.13
2022-11-06T12:50:50.816Z,100640.25
2022-11-06T12:53:32.260Z,100634.84
2022-11-06T12:56:08.353Z,100637.56
2022-11-06T12:58:53.331Z,100630.00
2022-11-06T13:01:28.683Z,100632.28
2022-11-06T13:04:14.067Z,100629.09
2022-11-06T13:07:11.650Z,100622.13
2022-11-06T13:09:43.664Z,100615.66
2022-11-06T13:12:17.369Z,100610.03
2022-11-06T13:14:53.329Z,100602.53
2022-11-06T13:17:25.666Z,100599.38
2022-11-06T13:19:58.124Z,100593.94
2022-11-06T13:22:29.312Z,100593.16
2022-11-06T13:25:01.067Z,100597.72
2022-11-06T13:27:37.077Z,100593.63
2022-11-06T13:30:07.202Z,100590.75
2022-11-06T13:32:35.448Z,100585.91
2022-11-06T13:35:03.408Z,100585.63
2022-11-06T13:37:38.481Z,100586.09
2022-11-06T13:40:16.339Z,100576.59
2022-11-06T13:42:50.139Z,100570.22
2022-11-06T13:45:18.771Z,100567.50
2022-11-06T13:47:56.718Z,100562.59
2022-11-06T13:50:30.915Z,100565.78
2022-11-06T13:53:03.665Z,100570.66
2022-11-06T13:55:40.332Z,100562.09
2022-11-06T13:58:23.622Z,100555.56
2022-11-06T14:01:01.783Z,100558.28
2022-11-06T14:04:03.019Z,100560.13
2022-11-06T14:06:32.593Z,100555.97
2022-11-06T14:09:04.124Z,100556.97
2022-11-06T14:11:33.426Z,100546.94
2022-11-06T14:14:04.576Z,100553.44
2022-11-06T14:16:33.800Z,100553.94
2022-11-06T14:19:05.223Z,100549.66
2022-11-06T14:21:48.835Z,100544.16
2022-11-06T14:24:31.721Z,100545.78
2022-11-06T14:27:00.362Z,100549.84
2022-11-06T14:29:59.523Z,100535.03
2022-11-06T14:32:36.442Z,100523.50
2022-11-06T14:35:49.109Z,100510.34
2022-11-06T14:38:42.713Z,100514.06
2022-11-06T14:41:47.981Z,100509.38
2022-11-06T14:44:25.020Z,100513.22
2022-11-06T14:46:56.207Z,100513.47
2022-11-06T14:49:30.667Z,100508.88
2022-11-06T14:51:59.908Z,100518.53
2022-11-06T14:54:27.650Z,100516.09
2022-11-06T14:56:56.169Z,100501.75
2022-11-06T14:59:31.498Z,100502.56
2022-11-06T15:02:05.612Z,100501.28
2022-11-06T15:04:35.676Z,100496.72
2022-11-06T15:07:11.451Z,100488.50
2022-11-06T15:09:47.185Z,100487.66
2022-11-06T15:12:14.992Z,100490.13
2022-11-06T15:15:00.317Z,100499.47
2022-11-06T15:17:37.394Z,100502.38
2022-11-06T15:20:27.654Z,100493.56
2022-11-06T15:23:00.935Z,100506.25
2022-11-06T15:25:31.079Z,100501.94
2022-11-06T15:28:05.919Z,100494.34
2022-11-06T15:30:41.181Z,100501.34
2022-11-06T15:33:14.841Z,100490.28
2022-11-06T15:35:43.064Z,100492.72
2022-11-06T15:38:14.549Z,100485.63
2022-11-06T15:40:43.338Z,100492.47
2022-11-06T15:43:26.450Z,100487.78
2022-11-06T15:46:08.871Z,100480.97
2022-11-06T15:48:38.167Z,100480.19
2022-11-06T15:51:19.576Z,100482.09
2022-11-06T15:53:47.311Z,100498.22
2022-11-06T15:56:15.747Z,100491.41
2022-11-06T15:58:43.560Z,100494.19
2022-11-06T16:01:12.362Z,100501.31
2022-11-06T16:03:50.271Z,100504.03
2022-11-06T16:06:18.571Z,100489.75
2022-11-06T16:08:46.797Z,100489.00
2022-11-06T16:11:16.776Z,100492.38
2022-11-06T16:13:46.484Z,100487.25
2022-11-06T16:16:33.717Z,100485.44
2022-11-06T16:19:04.559Z,100464.28
2022-11-06T16:21:34.065Z,100470.44
2022-11-06T16:24:04.701Z,100476.06
2022-11-06T16:26:38.225Z,100468.59
2022-11-06T16:29:11.269Z,100469.66
2022-11-06T16:31:40.331Z,100467.22
2022-11-06T16:34:21.553Z,100477.50
2022-11-06T16:36:52.473Z,100464.72
2022-11-06T16:39:50.993Z,100458.09
2022-11-06T16:42:27.648Z,100447.53
2022-11-06T16:45:17.094Z,100448.91
2022-11-06T16:48:22.469Z,100447.53
2022-11-06T16:50:53.377Z,100443.97
2022-11-06T16:53:21.820Z,100431.25
2022-11-06T16:55:57.080Z,100428.31
2022-11-06T16:58:25.251Z,100429.09
2022-11-06T17:00:58.823Z,100429.41
2022-11-06T17:03:29.757Z,100425.59
2022-11-06T17:05:59.274Z,100426.72
2022-11-06T17:08:35.679Z,100432.09
2022-11-06T17:11:20.492Z,100428.53
2022-11-06T17:13:49.388Z,100427.72
2022-11-06T17:16:18.841Z,100436.59
2022-11-06T17:18:47.629Z,100439.19
2022-11-06T17:21:18.612Z,100432.38
2022-11-06T17:23:47.750Z,100427.53
2022-11-06T17:26:18.138Z,100430.91
2022-11-06T17:28:46.175Z,100419.91
2022-11-06T17:31:15.251Z,100417.41
2022-11-06T17:33:43.636Z,100412.75
2022-11-06T17:36:18.359Z,100407.38
2022-11-06T17:38:46.605Z,100422.50
2022-11-06T17:41:29.411Z,100413.41
2022-11-06T17:43:57.802Z,100407.72
2022-11-06T17:46:27.074Z,100403.50
2022-11-06T17:48:55.144Z,100400.88
2022-11-06T17:51:44.091Z,100397.97
2022-11-06T17:54:12.444Z,100392.31
2022-11-06T17:56:40.977Z,100393.63
2022-11-06T17:59:09.704Z,100385.38
2022-11-06T18:01:37.575Z,100381.22
2022-11-06T18:04:08.197Z,100387.72
2022-11-06T18:06:37.605Z,100384.88
2022-11-06T18:09:07.053Z,100387.13
2022-11-06T18:11:34.980Z,100384.81
2022-11-06T18:14:05.140Z,100375.72
2022-11-06T18:16:38.451Z,100380.13
2022-11-06T18:19:09.525Z,100366.13
2022-11-06T18:21:39.102Z,100367.78
2022-11-06T18:24:08.227Z,100358.06
2022-11-06T18:26:37.104Z,100348.84
2022-11-06T18:29:05.092Z,100347.31
2022-11-06T18:31:32.863Z,100339.72
2022-11-06T18:34:00.607Z,100329.78
2022-11-06T18:36:28.351Z,100338.91
2022-11-06T18:38:57.430Z,100352.09
2022-11-06T18:41:25.133Z,100352.50
2022-11-06T18:43:56.443Z,100338.31
2022-11-06T18:46:24.344Z,100326.84
2022-11-06T18:48:52.077Z,100317.28
2022-11-06T18:51:33.851Z,100320.72
2022-11-06T18:54:05.521Z,100322.09
2022-11-06T18:56:33.584Z,100315.66
2022-11-06T18:59:03.004Z,100305.72
2022-11-06T19:01:30.808Z,100305.91
2022-11-06T19:03:58.608Z,100307.81
2022-11-06T19:06:26.381Z,100297.16
2022-11-06T19:08:54.129Z,100310.09
2022-11-06T19:11:23.290Z,100291.72
2022-11-06T19:13:51.033Z,100296.84
2022-11-06T19:16:19.668Z,100297.66
2022-11-06T19:21:30.819Z,100290.34
2022-11-06T19:24:03.832Z,100287.19
2022-11-06T19:26:34.269Z,100279.13
2022-11-06T19:29:03.906Z,100278.59
2022-11-06T19:31:33.137Z,100278.53
2022-11-06T19:34:01.749Z,100273.03
2022-11-06T19:36:33.542Z,100272.25
2022-11-06T19:39:01.276Z,100278.09
2022-11-06T19:41:30.091Z,100274.84
2022-11-06T19:43:59.231Z,100272.19
2022-11-06T19:46:32.385Z,100266.72
2022-11-06T19:49:04.976Z,100282.34
2022-11-06T19:51:33.261Z,100273.41
2022-11-06T19:54:03.408Z,100267.34
2022-11-06T19:56:31.167Z,100268.97
2022-11-06T19:59:01.088Z,100263.00
2022-11-06T20:01:29.968Z,100265.09
2022-11-06T20:03:57.812Z,100261.88
2022-11-06T20:06:27.262Z,100268.84
2022-11-06T20:08:55.046Z,100269.75
2022-11-06T20:11:22.772Z,100263.78
2022-11-06T20:13:50.500Z,100250.16
2022-11-06T20:16:21.209Z,100258.22
2022-11-06T20:18:52.116Z,100262.66
2022-11-06T20:21:19.965Z,100257.00
2022-11-06T20:23:47.771Z,100259.91
2022-11-06T20:26:16.267Z,100254.41
2022-11-06T20:28:46.579Z,100255.44
2022-11-06T20:31:18.448Z,100248.16
2022-11-06T20:33:47.804Z,100252.25
2022-11-06T20:36:18.768Z,100254.00
2022-11-06T20:38:46.992Z,100248.16
2022-11-06T20:41:15.428Z,100252.25
2022-11-06T20:43:43.865Z,100255.19
2022-11-06T20:46:12.628Z,100243.31
2022-11-06T20:48:40.961Z,100253.63
2022-11-06T20:51:12.768Z,100252.53
2022-11-06T20:53:41.266Z,100247.91
2022-11-06T20:56:11.445Z,100261.91
2022-11-06T20:58:39.280Z,100262.75
2022-11-06T21:01:08.940Z,100257.03
2022-11-06T21:03:37.141Z,100258.72
2022-11-06T21:06:05.213Z,100267.34
2022-11-06T21:08:35.873Z,100269.75
2022-11-06T21:11:06.790Z,100263.28
2022-11-06T21:13:35.058Z,100268.56
2022-11-06T21:16:07.890Z,100265.09
2022-11-06T21:18:36.634Z,100263.44
2022-11-06T21:21:07.053Z,100235.19
2022-11-06T21:23:36.604Z,100204.25
2022-11-06T21:26:06.829Z,100206.03
2022-11-06T21:28:34.587Z,100211.97
2022-11-06T21:31:04.554Z,100226.97
2022-11-06T21:33:32.324Z,100253.53
2022-11-06T21:36:07.351Z,100251.59
2022-11-06T21:38:36.596Z,100246.78
2022-11-06T21:41:07.244Z,100256.72
2022-11-06T21:43:35.372Z,100250.13
2022-11-06T21:46:04.664Z,100242.03
2022-11-06T21:48:45.883Z,100245.41
2022-11-06T21:51:16.294Z,100246.97
2022-11-06T21:54:04.911Z,100243.03
2022-11-06T21:56:33.035Z,100242.53
2022-11-06T21:59:03.016Z,100236.31
2022-11-06T22:01:32.201Z,100232.50
2022-11-06T22:04:00.428Z,100228.31
2022-11-06T22:06:30.342Z,100222.94
2022-11-06T22:09:01.069Z,100214.63
2022-11-06T22:11:31.163Z,100221.63
2022-11-06T22:14:00.290Z,100217.56
2022-11-06T22:16:32.846Z,100212.25
2022-11-06T22:19:00.883Z,100204.56
2022-11-06T22:21:30.896Z,100195.28
2022-11-06T22:24:00.080Z,100196.56
2022-11-06T22:26:31.609Z,100203.00
2022-11-06T22:29:03.470Z,100195.47
2022-11-06T22:31:31.448Z,100192.69
2022-11-06T22:33:59.438Z,100189.84
2022-11-06T22:36:27.410Z,100196.09
2022-11-06T22:38:55.253Z,100189.91
2022-11-06T22:41:25.369Z,100188.47
2022-11-06T22:43:53.595Z,100187.16
2022-11-06T22:46:23.089Z,100193.22
2022-11-06T22:48:51.668Z,100195.66
2022-11-06T22:51:21.032Z,100202.53
2022-11-06T22:53:50.177Z,100198.72
2022-11-06T22:56:18.797Z,100191.31
2022-11-06T22:58:47.965Z,100201.41
2022-11-06T23:01:15.805Z,100192.28
2022-11-06T23:03:46.386Z,100182.59
2022-11-06T23:06:14.141Z,100200.25
2022-11-06T23:08:46.729Z,100184.16
2022-11-06T23:11:17.149Z,100187.84
2022-11-06T23:13:45.176Z,100180.88
2022-11-06T23:16:17.772Z,100173.38
2022-11-06T23:18:46.233Z,100179.63
2022-11-06T23:21:14.423Z,100172.53
2022-11-06T23:23:42.932Z,100176.47
2022-11-06T23:26:12.172Z,100167.38
2022-11-06T23:28:39.896Z,100174.38
2022-11-06T23:31:08.329Z,100164.13
2022-11-06T23:33:38.858Z,100173.38
2022-11-06T23:36:07.304Z,100191.41
2022-11-06T23:38:35.202Z,100196.50
2022-11-06T23:41:27.291Z,100182.84
2022-11-06T23:43:55.259Z,100197.34
2022-11-06T23:46:23.440Z,100193.34
2022-11-06T23:48:52.973Z,100188.66
2022-11-06T23:51:21.351Z,100198.97
2022-11-06T23:53:49.174Z,100189.09
2022-11-06T23:56:16.904Z,100190.66
2022-11-06T23:58:44.958Z,100205.75
